Time;durP1;ratioP1;P1;durP2;ratioP2;P2;SDS_P1;SDS_P2;PMS_P1;PMS_P2;Temp;Humidity;BMP_temperature;BMP_pressure;BME280_temperature;BME280_humidity;BME280_pressure;Samples;Min_cycle;Max_cycle;Signal;HPM_P1;HPM_P2
2021/09/17 00:00:54;;;;;;;5.82;5.22;;;;;;;12.77;100.00;96021.91;5056862;28;24440;-78
2021/09/17 00:03:21;;;;;;;4.60;4.20;;;;;;;12.69;100.00;96018.16;5055361;28;24415;-79
2021/09/17 00:05:47;;;;;;;5.03;4.55;;;;;;;12.90;100.00;96014.09;5054864;28;24466;-79
2021/09/17 00:08:15;;;;;;;6.00;5.20;;;;;;;12.75;100.00;96013.34;5041219;28;24798;-77
2021/09/17 00:10:42;;;;;;;7.80;4.53;;;;;;;12.67;100.00;96022.63;5036277;28;24785;-79
2021/09/17 00:13:08;;;;;;;5.60;5.05;;;;;;;12.63;100.00;96013.38;5035721;28;24430;-78
2021/09/17 00:15:35;;;;;;;5.20;4.65;;;;;;;12.67;100.00;96007.03;5035240;28;24753;-78
2021/09/17 00:18:01;;;;;;;6.27;4.47;;;;;;;12.69;100.00;96018.16;5035864;28;24528;-78
2021/09/17 00:20:28;;;;;;;4.80;4.40;;;;;;;12.69;100.00;96010.38;5035314;28;24426;-79
2021/09/17 00:22:54;;;;;;;5.70;4.40;;;;;;;12.69;100.00;96013.78;5035737;28;24430;-77
2021/09/17 00:25:22;;;;;;;5.82;4.43;;;;;;;12.72;100.00;96012.72;5035548;28;24809;-78
2021/09/17 00:27:48;;;;;;;6.07;3.95;;;;;;;12.75;100.00;96010.75;5036046;28;24427;-78
2021/09/17 00:30:15;;;;;;;5.13;4.43;;;;;;;12.73;100.00;96010.06;5035554;28;24428;-78
2021/09/17 00:32:41;;;;;;;5.90;4.22;;;;;;;12.74;100.00;96011.72;5035849;28;24473;-79
2021/09/17 00:35:10;;;;;;;5.03;3.92;;;;;;;12.79;100.00;96001.84;5045371;28;24439;-79
2021/09/17 00:37:36;;;;;;;6.10;4.57;;;;;;;12.78;100.00;96004.53;5047586;28;24526;-79
2021/09/17 00:40:04;;;;;;;4.50;3.90;;;;;;;12.81;100.00;95999.13;5055622;28;24424;-77
2021/09/17 00:42:35;;;;;;;4.15;3.78;;;;;;;12.87;100.00;95998.72;5054763;28;24423;-79
2021/09/17 00:45:02;;;;;;;5.45;4.10;;;;;;;12.88;100.00;96010.78;5054762;28;24805;-79
2021/09/17 00:47:28;;;;;;;4.63;4.22;;;;;;;12.80;100.00;96000.91;5054020;28;24411;-79
2021/09/17 00:49:55;;;;;;;4.25;3.85;;;;;;;12.87;100.00;95997.88;5055247;28;24423;-77
2021/09/17 00:52:21;;;;;;;4.07;3.67;;;;;;;12.89;100.00;96004.63;5054854;28;24430;-77
2021/09/17 00:54:48;;;;;;;5.85;4.35;;;;;;;12.87;100.00;96003.06;5055338;28;24431;-78
2021/09/17 00:57:15;;;;;;;4.25;3.85;;;;;;;12.86;100.00;95999.63;5054935;28;24430;-79
2021/09/17 00:59:43;;;;;;;6.95;4.35;;;;;;;12.66;100.00;96000.19;5054992;28;24419;-77
2021/09/17 01:02:09;;;;;;;5.43;4.15;;;;;;;12.66;100.00;96001.00;5055273;28;24422;-79
2021/09/17 01:04:36;;;;;;;4.45;4.05;;;;;;;12.75;100.00;95992.56;5055056;28;24454;-77
2021/09/17 01:07:03;;;;;;;5.35;3.90;;;;;;;12.77;100.00;95992.47;5054961;28;24419;-78
2021/09/17 01:09:30;;;;;;;4.90;4.40;;;;;;;12.81;100.00;95991.34;5055034;28;24430;-78
2021/09/17 01:12:02;;;;;;;6.95;4.80;;;;;;;12.76;100.00;95994.25;5053452;28;24992;-78
2021/09/17 01:14:29;;;;;;;6.93;4.45;;;;;;;12.78;100.00;95987.16;5051428;28;24485;-79
2021/09/17 01:16:57;;;;;;;10.07;4.82;;;;;;;12.63;100.00;95985.63;5054084;28;24419;-78
2021/09/17 01:19:24;;;;;;;5.40;4.80;;;;;;;12.68;100.00;95980.97;5054067;28;24948;-77
2021/09/17 01:21:57;;;;;;;9.57;4.65;;;;;;;12.72;100.00;95982.41;5054128;28;24797;-78
2021/09/17 01:24:23;;;;;;;6.40;4.85;;;;;;;12.78;100.00;95981.16;5056867;28;24466;-77
2021/09/17 01:26:50;;;;;;;4.80;4.35;;;;;;;12.82;100.00;95988.63;5057083;28;24430;-79
2021/09/17 01:29:17;;;;;;;7.78;4.97;;;;;;;12.82;100.00;95978.22;5052593;28;24964;-77
2021/09/17 01:31:43;;;;;;;12.63;4.68;;;;;;;12.87;100.00;95980.53;5052499;28;24414;-79
2021/09/17 01:34:10;;;;;;;5.60;4.95;;;;;;;12.89;100.00;95975.22;5052590;28;24435;-79
2021/09/17 01:36:37;;;;;;;5.32;4.20;;;;;;;12.93;100.00;95974.06;5051937;28;24431;-78
2021/09/17 01:39:05;;;;;;;5.20;4.18;;;;;;;12.93;100.00;95974.88;5052803;28;24446;-79
2021/09/17 01:41:32;;;;;;;6.50;4.40;;;;;;;12.92;100.00;95969.81;5052732;28;24428;-78
2021/09/17 01:43:58;;;;;;;3.90;3.50;;;;;;;12.94;100.00;95965.31;5053185;28;24427;-79
2021/09/17 01:46:24;;;;;;;5.47;3.78;;;;;;;12.94;100.00;95960.13;5052976;28;24443;-77
2021/09/17 01:48:51;;;;;;;6.30;3.93;;;;;;;12.93;100.00;95964.50;5052002;28;24415;-75
2021/09/17 01:51:17;;;;;;;4.22;3.70;;;;;;;12.95;100.00;95965.22;5053216;28;24419;-79
2021/09/17 01:53:44;;;;;;;5.28;3.90;;;;;;;12.94;100.00;95963.59;5052945;28;24442;-78
2021/09/17 01:56:12;;;;;;;4.67;3.90;;;;;;;12.96;100.00;95958.25;5053834;28;24419;-77
2021/09/17 01:58:39;;;;;;;6.25;3.80;;;;;;;13.02;100.00;95958.66;5053623;28;24431;-77
2021/09/17 02:01:05;;;;;;;4.75;3.83;;;;;;;13.03;100.00;95957.72;5053109;28;24435;-78
2021/09/17 02:03:32;;;;;;;3.87;3.47;;;;;;;13.07;100.00;95947.94;5053467;28;24419;-79
2021/09/17 02:05:58;;;;;;;5.03;4.00;;;;;;;13.05;100.00;95947.22;5053661;28;24454;-79
2021/09/17 02:08:25;;;;;;;3.80;3.42;;;;;;;12.93;100.00;95954.09;5053900;28;24457;-78
2021/09/17 02:10:52;;;;;;;4.22;3.75;;;;;;;12.88;100.00;95951.00;5053464;28;24427;-79
2021/09/17 02:13:20;;;;;;;4.32;3.40;;;;;;;12.82;100.00;95948.81;5053830;28;24430;-78
2021/09/17 02:15:47;;;;;;;3.78;3.45;;;;;;;12.84;100.00;95949.53;5053306;28;24434;-79
2021/09/17 02:18:14;;;;;;;6.65;4.50;;;;;;;12.87;100.00;95948.47;5052919;28;24423;-79
2021/09/17 02:20:40;;;;;;;5.70;4.37;;;;;;;12.90;100.00;95948.28;5053344;28;24434;-78
2021/09/17 02:23:07;;;;;;;6.45;4.10;;;;;;;12.89;100.00;95949.22;5052620;28;24972;-79
2021/09/17 02:25:33;;;;;;;5.03;4.15;;;;;;;12.89;100.00;95951.81;5052943;28;24504;-79
2021/09/17 02:28:00;;;;;;;8.38;3.50;;;;;;;12.75;100.00;95950.16;5057142;28;24435;-77
2021/09/17 02:30:28;;;;;;;4.55;3.10;;;;;;;12.75;100.00;95951.00;5057461;28;24438;-79
2021/09/17 02:32:54;;;;;;;4.10;2.97;;;;;;;12.79;100.00;95949.00;5057391;28;24419;-79
2021/09/17 02:35:21;;;;;;;3.83;3.08;;;;;;;12.80;100.00;95946.31;5056226;28;24432;-79
2021/09/17 02:37:47;;;;;;;6.53;3.45;;;;;;;12.74;100.00;95946.72;5056414;28;24785;-79
2021/09/17 02:40:16;;;;;;;4.57;3.17;;;;;;;12.63;100.00;95944.03;5056845;28;25060;-78
2021/09/17 02:42:43;;;;;;;8.55;3.75;;;;;;;12.53;100.00;95949.06;5057196;28;24420;-79
2021/09/17 02:45:12;;;;;;;8.57;3.60;;;;;;;12.35;100.00;95942.50;5056876;28;24463;-78
2021/09/17 02:47:41;;;;;;;4.70;3.20;;;;;;;12.42;100.00;95937.69;5057293;28;24434;-79
2021/09/17 02:50:09;;;;;;;4.20;2.85;;;;;;;12.52;100.00;95930.94;5057048;28;24423;-79
2021/09/17 02:52:35;;;;;;;5.38;3.08;;;;;;;12.60;100.00;95944.25;5057460;28;24422;-79
2021/09/17 02:55:02;;;;;;;6.40;3.40;;;;;;;12.66;100.00;95943.00;5056771;28;24423;-79
2021/09/17 02:57:29;;;;;;;5.18;3.80;;;;;;;12.42;100.00;95937.69;5056458;28;24430;-78
2021/09/17 02:59:55;;;;;;;3.95;3.53;;;;;;;12.47;100.00;95938.22;5056691;28;24430;-79
2021/09/17 03:02:22;;;;;;;11.05;3.45;;;;;;;12.57;100.00;95934.09;5056579;28;24414;-77
2021/09/17 03:04:49;;;;;;;5.05;3.63;;;;;;;12.60;100.00;95937.28;5056334;28;24848;-79
2021/09/17 03:07:16;;;;;;;10.25;3.50;;;;;;;12.52;100.00;95931.78;5057231;28;24442;-78
2021/09/17 03:09:42;;;;;;;5.13;3.60;;;;;;;12.54;100.00;95922.13;5056462;28;25148;-79
2021/09/17 03:12:09;;;;;;;4.23;3.70;;;;;;;12.64;100.00;95927.50;5056748;28;24987;-78
2021/09/17 03:14:35;;;;;;;5.00;3.30;;;;;;;12.71;100.00;95925.31;5057193;28;24427;-78
2021/09/17 03:17:02;;;;;;;4.20;3.42;;;;;;;12.75;100.00;95918.97;5062177;28;24429;-79
2021/09/17 03:19:28;;;;;;;4.70;3.35;;;;;;;12.75;100.00;95921.56;5062547;28;24770;-79
2021/09/17 03:21:59;;;;;;;3.80;3.20;;;;;;;12.68;100.00;95923.78;5062951;28;24423;-79
2021/09/17 03:24:26;;;;;;;5.83;3.47;;;;;;;12.64;100.00;95926.69;5062870;28;24431;-79
2021/09/17 03:26:53;;;;;;;5.03;3.20;;;;;;;12.52;100.00;95921.38;5061878;28;24440;-78
2021/09/17 03:29:19;;;;;;;4.10;3.25;;;;;;;12.46;100.00;95923.56;5062449;28;24836;-79
2021/09/17 03:31:46;;;;;;;4.23;3.10;;;;;;;12.54;100.00;95921.28;5063813;28;24485;-78
2021/09/17 03:34:13;;;;;;;6.28;3.08;;;;;;;12.63;100.00;95931.03;5063811;28;24447;-78
2021/09/17 03:36:42;;;;;;;5.35;3.42;;;;;;;12.69;100.00;95930.63;5062790;28;24450;-79
2021/09/17 03:39:10;;;;;;;3.97;3.15;;;;;;;12.70;100.00;95924.50;5058764;28;24436;-77
2021/09/17 03:41:36;;;;;;;4.10;2.92;;;;;;;12.74;100.00;95923.34;5060998;28;24971;-78
2021/09/17 03:44:03;;;;;;;4.40;3.30;;;;;;;12.74;100.00;95920.75;5060887;28;24426;-77
2021/09/17 03:46:30;;;;;;;4.82;2.85;;;;;;;12.75;100.00;95922.41;5060366;28;24964;-78
2021/09/17 03:48:56;;;;;;;4.72;2.88;;;;;;;12.78;100.00;95919.59;5060526;28;24415;-77
2021/09/17 03:51:24;;;;;;;4.47;3.05;;;;;;;12.80;100.00;95914.31;5060811;28;24426;-77
2021/09/17 03:53:50;;;;;;;8.65;3.17;;;;;;;12.78;100.00;95917.00;5060754;28;24868;-77
2021/09/17 03:56:19;;;;;;;3.00;2.70;;;;;;;12.82;100.00;95915.03;5060411;28;24515;-76
2021/09/17 03:58:45;;;;;;;5.68;3.00;;;;;;;12.84;100.00;95919.19;5060223;28;24789;-77
2021/09/17 04:01:12;;;;;;;5.95;3.08;;;;;;;12.84;100.00;95919.19;5060576;28;24419;-78
2021/09/17 04:03:38;;;;;;;4.43;3.37;;;;;;;12.81;100.00;95915.97;5059870;28;24477;-76
2021/09/17 04:06:05;;;;;;;5.22;3.33;;;;;;;12.79;100.00;95910.03;5060230;28;24439;-77
2021/09/17 04:08:31;;;;;;;5.32;2.78;;;;;;;12.76;100.00;95911.09;5061059;28;24415;-78
2021/09/17 04:10:58;;;;;;;5.07;3.28;;;;;;;12.68;100.00;95915.13;5061615;28;24429;-78
2021/09/17 04:13:25;;;;;;;5.18;3.30;;;;;;;12.47;100.00;95909.66;5061116;28;24427;-78
2021/09/17 04:15:52;;;;;;;9.68;3.20;;;;;;;12.38;100.00;95910.25;5059448;28;24423;-79
2021/09/17 04:18:18;;;;;;;9.25;3.08;;;;;;;12.44;100.00;95909.88;5059489;28;24422;-78
2021/09/17 04:20:45;;;;;;;8.90;2.80;;;;;;;12.45;100.00;95903.72;5059433;28;24975;-78
2021/09/17 04:23:11;;;;;;;4.22;2.70;;;;;;;12.40;100.00;95911.84;5060234;28;24427;-79
2021/09/17 04:25:38;;;;;;;7.05;3.20;;;;;;;12.41;100.00;95907.47;5056264;28;24459;-78
2021/09/17 04:28:05;;;;;;;5.97;2.80;;;;;;;12.35;100.00;95911.31;5045486;28;24704;-78
2021/09/17 04:30:33;;;;;;;6.25;3.08;;;;;;;12.07;100.00;95910.56;5049450;28;24436;-78
2021/09/17 04:33:00;;;;;;;5.93;3.63;;;;;;;12.04;100.00;95913.34;5046851;28;24461;-79
2021/09/17 04:35:27;;;;;;;4.50;2.80;;;;;;;12.09;100.00;95919.09;5047076;28;24813;-78
2021/09/17 04:37:56;;;;;;;4.57;2.50;;;;;;;12.12;100.00;95920.63;5048297;28;24438;-78
2021/09/17 04:40:23;;;;;;;5.78;2.88;;;;;;;12.13;100.00;95918.91;5056088;28;24489;-78
2021/09/17 04:42:50;;;;;;;2.78;2.50;;;;;;;12.10;100.00;95917.31;5056649;28;24427;-78
2021/09/17 04:45:43;;;;;;;3.40;2.70;;;;;;;12.11;100.00;95914.63;5056646;28;24434;-78
2021/09/17 04:48:11;;;;;;;2.70;2.40;;;;;;;11.89;100.00;95916.13;5055537;28;24423;-78
2021/09/17 04:50:39;;;;;;;2.65;2.40;;;;;;;11.88;100.00;95923.09;5055708;28;25035;-78
2021/09/17 04:53:05;;;;;;;2.83;2.22;;;;;;;11.94;100.00;95927.03;5048588;28;24442;-78
2021/09/17 04:55:33;;;;;;;2.78;2.25;;;;;;;11.97;100.00;95922.47;5041901;28;24462;-78
2021/09/17 04:58:02;;;;;;;3.35;2.88;;;;;;;12.07;100.00;95927.91;5034318;28;24416;-77
2021/09/17 05:00:29;;;;;;;2.90;2.13;;;;;;;12.07;100.00;95925.31;5037965;28;24469;-78
2021/09/17 05:02:57;;;;;;;2.20;2.00;;;;;;;11.96;100.00;95922.59;5053485;28;24979;-78
2021/09/17 05:05:24;;;;;;;2.20;1.90;;;;;;;11.90;100.00;95920.38;5053880;28;24412;-78
2021/09/17 05:07:50;;;;;;;1.85;1.75;;;;;;;11.66;100.00;95926.22;5053063;28;24430;-77
2021/09/17 05:10:17;;;;;;;2.65;2.05;;;;;;;11.54;100.00;95924.44;5053938;28;24442;-78
2021/09/17 05:12:43;;;;;;;3.40;2.20;;;;;;;11.44;100.00;95929.34;5054181;28;24415;-78
2021/09/17 05:15:11;;;;;;;3.45;2.10;;;;;;;11.46;100.00;95931.84;5053699;28;24435;-77
2021/09/17 05:17:38;;;;;;;3.13;1.70;;;;;;;11.21;100.00;95935.16;5053443;28;24983;-78
2021/09/17 05:20:07;;;;;;;11.13;1.77;;;;;;;11.02;100.00;95945.84;5054262;28;24430;-78
2021/09/17 05:22:34;;;;;;;13.32;2.30;;;;;;;10.86;100.00;95939.03;5034698;28;24424;-78
2021/09/17 05:25:00;;;;;;;11.20;1.85;;;;;;;10.71;100.00;95934.75;5039540;28;24439;-78
2021/09/17 05:27:27;;;;;;;28.37;2.20;;;;;;;10.60;100.00;95939.75;5045388;28;24456;-78
2021/09/17 05:29:54;;;;;;;24.13;2.20;;;;;;;10.50;100.00;95934.31;5033864;28;24431;-78
2021/09/17 05:32:21;;;;;;;14.13;1.98;;;;;;;10.37;100.00;95934.19;5033687;28;24980;-78
2021/09/17 05:34:47;;;;;;;17.23;1.98;;;;;;;10.28;100.00;95932.16;5053197;28;24435;-77
2021/09/17 05:37:16;;;;;;;4.73;1.47;;;;;;;10.55;100.00;95934.84;5053191;28;24431;-78
2021/09/17 05:39:42;;;;;;;3.30;1.70;;;;;;;10.74;100.00;95934.56;5053233;28;24411;-78
2021/09/17 05:42:09;;;;;;;6.30;1.90;;;;;;;10.92;100.00;95939.56;5053454;28;24411;-77
2021/09/17 05:44:36;;;;;;;3.08;2.20;;;;;;;10.99;100.00;95938.25;5053500;28;24797;-78
2021/09/17 05:47:02;;;;;;;2.28;2.08;;;;;;;11.10;100.00;95946.19;5046870;28;24463;-78
2021/09/17 05:49:29;;;;;;;5.30;1.73;;;;;;;11.30;100.00;95947.53;5051586;28;24956;-80
2021/09/17 05:51:55;;;;;;;6.20;1.80;;;;;;;11.34;100.00;95949.84;5052962;28;24451;-78
2021/09/17 05:54:23;;;;;;;14.60;3.05;;;;;;;11.03;100.00;95943.16;5050503;28;24443;-78
2021/09/17 05:56:50;;;;;;;29.35;2.65;;;;;;;10.74;100.00;95944.94;5037876;28;24558;-78
2021/09/17 05:59:16;;;;;;;32.57;2.90;;;;;;;10.66;100.00;95940.22;5050496;28;24431;-79
2021/09/17 06:01:43;;;;;;;5.72;2.13;;;;;;;10.93;100.00;95941.22;5045219;28;24427;-78
2021/09/17 06:04:09;;;;;;;9.95;2.25;;;;;;;11.17;100.00;95938.88;5050861;28;25192;-78
2021/09/17 06:06:36;;;;;;;9.50;2.47;;;;;;;11.35;100.00;95942.91;5050345;28;24458;-78
2021/09/17 06:09:02;;;;;;;5.78;2.25;;;;;;;11.57;100.00;95935.44;5053383;28;24442;-78
2021/09/17 06:11:30;;;;;;;16.33;2.33;;;;;;;11.65;100.00;95937.53;5053260;28;24454;-77
2021/09/17 06:13:57;;;;;;;14.82;2.45;;;;;;;11.35;100.00;95935.97;5055864;28;24435;-78
2021/09/17 06:16:23;;;;;;;17.15;3.03;;;;;;;11.05;100.00;95943.03;5055409;28;24414;-78
2021/09/17 06:18:50;;;;;;;59.50;3.58;;;;;;;11.01;100.00;95941.56;5055272;28;24945;-77
2021/09/17 06:21:16;;;;;;;10.65;2.83;;;;;;;11.18;100.00;95948.31;5066063;28;24431;-78
2021/09/17 06:23:43;;;;;;;3.35;3.05;;;;;;;11.32;100.00;95946.53;5049775;28;24443;-78
2021/09/17 06:26:09;;;;;;;7.45;3.13;;;;;;;11.33;100.00;95947.34;5044142;28;24451;-78
2021/09/17 06:28:38;;;;;;;19.63;3.90;;;;;;;11.20;100.00;95943.84;5046740;28;24438;-78
2021/09/17 06:31:04;;;;;;;3.83;3.47;;;;;;;11.41;100.00;95934.72;5035555;28;24794;-78
2021/09/17 06:33:31;;;;;;;10.00;3.40;;;;;;;11.57;100.00;95950.16;5034771;28;24432;-78
2021/09/17 06:35:57;;;;;;;9.45;3.92;;;;;;;11.67;100.00;95946.03;5073135;28;24983;-78
2021/09/17 06:38:24;;;;;;;12.50;4.40;;;;;;;11.70;100.00;95945.84;5072726;28;24423;-79
2021/09/17 06:40:50;;;;;;;11.68;4.13;;;;;;;11.65;100.00;95941.91;5072479;28;24418;-78
2021/09/17 06:43:17;;;;;;;13.33;4.63;;;;;;;11.67;100.00;95934.84;5071774;28;24479;-76
2021/09/17 06:45:45;;;;;;;6.30;5.03;;;;;;;11.76;100.00;95942.88;5071026;28;24434;-77
2021/09/17 06:48:11;;;;;;;8.43;4.90;;;;;;;11.86;100.00;95945.72;5072301;28;24430;-78
2021/09/17 06:50:38;;;;;;;5.32;4.82;;;;;;;11.92;100.00;95944.50;5067426;28;24439;-77
2021/09/17 06:53:04;;;;;;;8.52;5.10;;;;;;;11.83;100.00;95941.56;5050777;28;24423;-77
2021/09/17 06:55:32;;;;;;;5.60;4.30;;;;;;;11.84;100.00;95938.03;5049632;28;24420;-77
2021/09/17 06:58:01;;;;;;;5.47;3.93;;;;;;;11.95;100.00;95931.31;5049853;28;24482;-75
2021/09/17 07:00:29;;;;;;;6.17;4.50;;;;;;;11.90;100.00;95934.19;5049722;28;24460;-76
2021/09/17 07:02:58;;;;;;;5.22;4.07;;;;;;;12.05;100.00;95948.78;5050722;28;24427;-78
2021/09/17 07:05:26;;;;;;;7.40;5.07;;;;;;;12.10;100.00;95946.72;5050423;28;24435;-79
2021/09/17 07:07:58;;;;;;;6.88;4.60;;;;;;;12.23;100.00;95948.47;5050381;28;24447;-77
2021/09/17 07:10:25;;;;;;;15.10;5.60;;;;;;;12.22;100.00;95941.63;5051062;28;24431;-77
2021/09/17 07:12:51;;;;;;;17.15;8.05;;;;;;;12.21;100.00;95938.22;5050338;28;24793;-76
2021/09/17 07:15:18;;;;;;;16.23;6.83;;;;;;;12.32;100.00;95946.13;5053346;28;24439;-77
2021/09/17 07:17:44;;;;;;;15.13;7.30;;;;;;;12.23;100.00;95944.13;5057294;28;24414;-78
2021/09/17 07:20:13;;;;;;;16.10;7.40;;;;;;;12.29;100.00;95938.53;5057674;28;24438;-76
2021/09/17 07:22:40;;;;;;;15.30;7.43;;;;;;;12.41;100.00;95944.66;5077488;28;24869;-77
2021/09/17 07:25:08;;;;;;;15.65;7.25;;;;;;;12.44;100.00;95941.03;5077443;28;24426;-76
2021/09/17 07:27:34;;;;;;;13.77;6.72;;;;;;;12.33;100.00;95942.56;5075679;28;24453;-76
2021/09/17 07:30:01;;;;;;;11.65;6.10;;;;;;;12.54;100.00;95944.69;5075693;28;24976;-77
2021/09/17 07:32:27;;;;;;;11.60;5.80;;;;;;;12.63;100.00;95945.81;5074885;28;24422;-78
2021/09/17 07:34:54;;;;;;;11.23;5.53;;;;;;;12.65;100.00;95947.38;5076080;28;24437;-75
2021/09/17 07:37:23;;;;;;;9.05;5.45;;;;;;;12.69;100.00;95946.22;5072760;28;24776;-77
2021/09/17 07:39:50;;;;;;;8.80;5.63;;;;;;;12.71;100.00;95944.34;5073640;28;24426;-77
2021/09/17 07:42:17;;;;;;;7.55;5.35;;;;;;;12.84;100.00;95939.16;5073023;28;24442;-76
2021/09/17 07:44:43;;;;;;;8.88;5.03;;;;;;;12.85;100.00;95940.81;5072917;28;24422;-76
2021/09/17 07:47:10;;;;;;;9.27;5.63;;;;;;;12.81;100.00;95947.16;5072410;28;25164;-76
2021/09/17 07:49:37;;;;;;;11.50;5.38;;;;;;;12.96;100.00;95955.66;5072527;28;24545;-76
2021/09/17 07:52:04;;;;;;;8.45;5.80;;;;;;;13.01;100.00;95949.19;5072975;28;24431;-77
2021/09/17 07:54:32;;;;;;;7.60;5.30;;;;;;;13.11;100.00;95951.16;5075072;28;24438;-76
2021/09/17 07:56:59;;;;;;;7.27;5.30;;;;;;;13.25;100.00;95949.28;5074257;28;24446;-77
2021/09/17 07:59:25;;;;;;;6.13;5.53;;;;;;;13.24;100.00;95952.00;5076241;28;24784;-77
2021/09/17 08:01:52;;;;;;;8.25;5.53;;;;;;;13.22;100.00;95952.06;5072573;28;24441;-77
2021/09/17 08:04:18;;;;;;;10.82;5.72;;;;;;;13.39;100.00;95944.91;5072371;28;24427;-78
2021/09/17 08:06:45;;;;;;;11.52;5.90;;;;;;;13.58;100.00;95947.00;5072844;28;24449;-77
2021/09/17 08:09:12;;;;;;;7.63;6.60;;;;;;;13.59;100.00;95953.88;5072103;28;24418;-77
2021/09/17 08:11:40;;;;;;;6.53;5.78;;;;;;;13.71;100.00;95947.75;5072369;28;24785;-77
2021/09/17 08:14:07;;;;;;;6.30;5.57;;;;;;;13.80;100.00;95945.34;5072586;28;24487;-78
2021/09/17 08:16:34;;;;;;;8.70;6.30;;;;;;;13.78;100.00;95947.22;5074368;28;24501;-78
2021/09/17 08:19:00;;;;;;;13.07;7.35;;;;;;;13.84;100.00;95942.50;5072232;28;24430;-77
2021/09/17 08:21:26;;;;;;;7.80;7.10;;;;;;;13.92;100.00;95946.22;5062383;28;24987;-78
2021/09/17 08:23:53;;;;;;;11.25;8.07;;;;;;;13.94;100.00;95943.47;5055838;28;25342;-77
2021/09/17 08:26:20;;;;;;;10.13;8.30;;;;;;;14.02;100.00;95941.16;5052854;28;24499;-77
2021/09/17 08:28:47;;;;;;;11.10;8.40;;;;;;;14.03;100.00;95951.47;5053962;28;24499;-77
2021/09/17 08:31:14;;;;;;;10.40;8.98;;;;;;;14.12;100.00;95941.31;5054261;28;24972;-77
2021/09/17 08:33:42;;;;;;;10.00;8.68;;;;;;;14.38;100.00;95944.56;5053489;28;24426;-76
2021/09/17 08:36:09;;;;;;;10.37;8.77;;;;;;;14.54;100.00;95946.91;5051956;28;24473;-77
2021/09/17 08:38:37;;;;;;;11.98;10.32;;;;;;;14.38;100.00;95947.16;5054151;28;24872;-77
2021/09/17 08:41:04;;;;;;;10.77;9.68;;;;;;;14.33;100.00;95946.69;5053948;28;24430;-77
2021/09/17 08:43:31;;;;;;;13.48;9.50;;;;;;;14.41;100.00;95942.56;5052731;28;24435;-77
2021/09/17 08:45:58;;;;;;;11.20;10.00;;;;;;;14.45;100.00;95945.75;5051762;28;24422;-77
2021/09/17 08:48:28;;;;;;;13.25;10.00;;;;;;;14.64;100.00;95934.81;5051676;28;24447;-77
2021/09/17 08:50:55;;;;;;;11.82;9.50;;;;;;;14.72;100.00;95948.94;5051427;28;24435;-77
2021/09/17 08:53:21;;;;;;;9.73;8.18;;;;;;;14.91;100.00;95948.34;5052096;28;24422;-76
2021/09/17 08:55:48;;;;;;;11.43;8.68;;;;;;;15.16;100.00;95947.25;5053073;28;24431;-77
2021/09/17 08:58:14;;;;;;;11.05;9.32;;;;;;;15.23;100.00;95945.00;5052710;28;24418;-77
2021/09/17 09:00:43;;;;;;;9.52;8.55;;;;;;;15.24;100.00;95947.50;5055945;28;24418;-77
2021/09/17 09:03:11;;;;;;;12.15;8.15;;;;;;;15.20;100.00;95948.69;5053629;28;24520;-77
2021/09/17 09:05:41;;;;;;;9.75;8.18;;;;;;;15.27;100.00;95948.19;5053340;28;24957;-78
2021/09/17 09:08:07;;;;;;;8.60;6.78;;;;;;;15.31;96.85;95945.22;5056906;28;24447;-77
2021/09/17 09:10:35;;;;;;;10.63;6.13;;;;;;;15.33;91.05;95945.13;5053223;28;24430;-77
2021/09/17 09:13:05;;;;;;;5.65;5.05;;;;;;;15.41;87.27;95948.75;5052191;28;24485;-77
2021/09/17 09:15:33;;;;;;;5.87;4.67;;;;;;;15.47;85.83;95942.25;5051784;28;24481;-78
2021/09/17 09:18:01;;;;;;;6.75;5.50;;;;;;;15.48;87.36;95949.13;5051680;28;24422;-77
2021/09/17 09:20:31;;;;;;;9.68;5.07;;;;;;;15.62;88.69;95943.63;5052306;28;24979;-77
2021/09/17 09:23:06;;;;;;;7.55;5.43;;;;;;;15.97;90.12;95939.97;5052313;28;24415;-78
2021/09/17 09:25:33;;;;;;;7.80;5.77;;;;;;;16.06;90.24;95941.84;5053647;28;24434;-76
2021/09/17 09:28:11;;;;;;;6.87;5.47;;;;;;;16.15;86.82;95938.47;5051121;28;24524;-77
2021/09/17 09:30:37;;;;;;;11.27;6.25;;;;;;;15.96;84.93;95935.72;5051307;28;24477;-76
2021/09/17 09:33:24;;;;;;;6.53;5.33;;;;;;;15.79;85.96;95929.22;5052179;28;24754;-77
2021/09/17 09:36:00;;;;;;;6.97;4.80;;;;;;;15.66;86.02;95932.00;5050180;28;24987;-75
2021/09/17 09:38:39;;;;;;;7.05;4.57;;;;;;;15.85;88.00;95933.13;5055608;28;24415;-79
2021/09/17 09:41:07;;;;;;;6.17;4.03;;;;;;;15.97;85.31;95934.75;5056202;28;24426;-80
2021/09/17 09:43:36;;;;;;;6.32;3.80;;;;;;;16.01;82.28;95927.47;5055954;28;24426;-79
2021/09/17 09:46:26;;;;;;;8.05;4.63;;;;;;;16.25;85.45;95927.25;5055204;28;24570;-80
2021/09/17 09:49:22;;;;;;;4.60;4.07;;;;;;;16.39;83.10;95924.34;5054214;28;24450;-80
2021/09/17 09:52:00;;;;;;;9.65;4.80;;;;;;;16.32;81.97;95918.78;5069426;28;24434;-79
2021/09/17 09:54:30;;;;;;;6.30;4.87;;;;;;;16.31;78.89;95924.94;5075097;28;25049;-80
2021/09/17 09:57:00;;;;;;;5.07;4.60;;;;;;;16.40;78.14;95925.97;5074719;28;25020;-79
2021/09/17 09:59:29;;;;;;;5.53;4.55;;;;;;;16.48;78.27;95922.72;5074753;28;24423;-78
2021/09/17 10:01:57;;;;;;;6.25;5.10;;;;;;;16.64;81.61;95920.47;5075002;28;24470;-79
2021/09/17 10:04:25;;;;;;;7.85;4.82;;;;;;;16.75;79.56;95922.22;5074776;28;24417;-78
2021/09/17 10:07:04;;;;;;;6.00;4.47;;;;;;;16.53;79.45;95918.75;5074465;28;24426;-78
2021/09/17 10:09:31;;;;;;;7.15;5.00;;;;;;;16.45;77.84;95914.16;5074678;28;24426;-78
2021/09/17 10:11:59;;;;;;;6.38;4.95;;;;;;;16.31;79.13;95922.34;5074819;28;24398;-79
2021/09/17 10:14:27;;;;;;;7.07;5.90;;;;;;;16.59;78.11;95914.81;5074473;28;24457;-78
2021/09/17 10:16:55;;;;;;;17.38;6.25;;;;;;;16.45;77.46;95910.72;5074391;28;24415;-79
2021/09/17 10:19:22;;;;;;;6.75;5.05;;;;;;;16.57;79.42;95908.88;5068111;28;24431;-79
2021/09/17 10:21:56;;;;;;;6.93;4.50;;;;;;;16.75;78.01;95907.34;5062924;28;24431;-79
2021/09/17 10:24:32;;;;;;;9.30;5.50;;;;;;;16.70;75.50;95904.25;5063904;28;24774;-77
2021/09/17 10:27:00;;;;;;;10.48;6.85;;;;;;;16.38;75.31;95905.19;5063118;28;24419;-78
2021/09/17 10:29:32;;;;;;;6.97;4.30;;;;;;;16.38;76.03;95909.59;5061158;28;24428;-78
2021/09/17 10:32:00;;;;;;;5.25;2.53;;;;;;;16.31;70.36;95905.81;5060491;28;24415;-78
2021/09/17 10:34:32;;;;;;;4.68;2.95;;;;;;;16.40;81.50;95899.84;5058247;28;24850;-79
2021/09/17 10:36:59;;;;;;;3.88;2.83;;;;;;;16.23;81.42;95898.63;5055387;28;24428;-79
2021/09/17 10:39:25;;;;;;;5.43;2.47;;;;;;;16.43;79.75;95908.25;5055341;28;24427;-79
2021/09/17 10:42:12;;;;;;;4.00;2.90;;;;;;;16.21;79.03;95909.22;5056188;28;24438;-79
2021/09/17 10:45:14;;;;;;;3.93;2.80;;;;;;;15.99;76.21;95898.06;5055814;28;24424;-80
2021/09/17 10:48:02;;;;;;;8.35;3.25;;;;;;;16.01;75.67;95898.75;5057940;28;24442;-80
2021/09/17 10:50:46;;;;;;;3.75;2.85;;;;;;;15.95;75.87;95897.50;5061968;28;24443;-79
2021/09/17 10:53:14;;;;;;;5.50;3.03;;;;;;;16.06;77.35;95889.59;5078863;28;24431;-79
2021/09/17 10:56:02;;;;;;;4.10;2.97;;;;;;;16.07;74.45;95893.03;5077990;28;24430;-79
2021/09/17 10:58:32;;;;;;;5.95;3.70;;;;;;;16.06;73.59;95894.00;5077293;28;24422;-79
2021/09/17 11:01:01;;;;;;;3.87;3.03;;;;;;;15.89;76.33;95892.75;5079197;28;24515;-79
2021/09/17 11:03:59;;;;;;;6.45;2.78;;;;;;;15.86;75.23;95896.44;5078403;28;24775;-79
2021/09/17 11:06:28;;;;;;;4.22;2.83;;;;;;;15.83;76.75;95890.63;5078602;28;24426;-79
2021/09/17 11:08:57;;;;;;;4.80;2.90;;;;;;;15.85;75.46;95892.19;5078585;28;24488;-79
2021/09/17 11:11:25;;;;;;;3.88;2.25;;;;;;;15.91;76.08;95893.47;5079094;28;24426;-79
2021/09/17 11:13:55;;;;;;;4.70;2.72;;;;;;;15.92;75.51;95895.13;5077787;28;24430;-79
2021/09/17 11:16:23;;;;;;;5.68;2.75;;;;;;;15.86;74.05;95896.44;5078365;28;24410;-79
2021/09/17 11:19:00;;;;;;;3.38;2.10;;;;;;;15.91;75.57;95899.53;5077722;28;24417;-79
2021/09/17 11:21:27;;;;;;;3.10;2.22;;;;;;;15.92;74.59;95897.72;5074869;28;24976;-78
2021/09/17 11:23:54;;;;;;;3.72;2.13;;;;;;;15.83;75.25;95899.28;5057463;28;24813;-79
2021/09/17 11:26:23;;;;;;;4.85;2.28;;;;;;;15.81;75.39;95896.00;5057247;28;24426;-79
2021/09/17 11:29:05;;;;;;;3.37;2.00;;;;;;;15.87;73.50;95886.81;5057357;28;24450;-79